createdAt,value
2019-03-29T07:00:37.092Z,1025.77
2019-03-29T07:01:37.051Z,1025.85
2019-03-29T07:02:37.033Z,1025.77
2019-03-29T07:03:37.051Z,1025.78
2019-03-29T07:04:37.019Z,1025.83
2019-03-29T07:05:37.003Z,1025.80
2019-03-29T07:06:37.019Z,1025.72
2019-03-29T07:07:36.983Z,1025.77
2019-03-29T07:08:36.989Z,1025.73
2019-03-29T07:09:36.971Z,1025.69
2019-03-29T07:10:36.971Z,1025.83
2019-03-29T07:11:39.672Z,1025.80
2019-03-29T07:12:36.942Z,1025.81
2019-03-29T07:13:36.946Z,1025.80
2019-03-29T07:14:36.908Z,1025.82
2019-03-29T07:15:36.897Z,1025.83
2019-03-29T07:16:36.913Z,1025.82
2019-03-29T07:17:36.881Z,1025.81
2019-03-29T07:18:36.871Z,1025.78
2019-03-29T07:19:36.872Z,1025.77
2019-03-29T07:20:36.879Z,1025.80
2019-03-29T07:21:36.829Z,1025.74
2019-03-29T07:22:36.847Z,1025.74
2019-03-29T07:23:36.813Z,1025.79
2019-03-29T07:24:36.808Z,1025.80
2019-03-29T07:25:36.919Z,1025.81
2019-03-29T07:26:36.777Z,1025.81
2019-03-29T07:27:44.945Z,1025.85
2019-03-29T07:28:37.758Z,1025.85
2019-03-29T07:29:36.763Z,1025.89
2019-03-29T07:30:36.762Z,1025.84
2019-03-29T07:31:36.726Z,1025.83
2019-03-29T07:32:36.739Z,1025.82
2019-03-29T07:33:36.710Z,1025.90
2019-03-29T07:34:36.721Z,1025.82
2019-03-29T07:35:36.682Z,1025.75
2019-03-29T07:36:36.697Z,1025.80
2019-03-29T07:37:36.678Z,1025.73
2019-03-29T07:38:36.651Z,1025.77
2019-03-29T07:39:36.660Z,1025.79
2019-03-29T07:40:36.624Z,1025.79
2019-03-29T07:41:36.621Z,1025.77
2019-03-29T07:42:36.607Z,1025.75
2019-03-29T07:43:36.626Z,1025.76
2019-03-29T07:44:36.591Z,1025.74
2019-03-29T07:45:36.588Z,1025.77
2019-03-29T07:46:36.560Z,1025.74
2019-03-29T07:47:36.552Z,1025.72
2019-03-29T07:48:36.575Z,1025.76
2019-03-29T07:49:36.536Z,1025.76
2019-03-29T07:50:36.518Z,1025.71
2019-03-29T07:51:36.521Z,1025.74
2019-03-29T07:52:36.500Z,1025.73
2019-03-29T07:53:36.525Z,1025.74
2019-03-29T07:54:36.480Z,1025.78
2019-03-29T07:55:37.409Z,1025.74
2019-03-29T07:56:36.522Z,1025.74
2019-03-29T07:57:36.461Z,1025.74
2019-03-29T07:58:36.433Z,1025.73
2019-03-29T07:59:36.443Z,1025.68
2019-03-29T08:00:36.462Z,1025.67
2019-03-29T08:01:36.407Z,1025.69
2019-03-29T08:02:36.410Z,1025.70
2019-03-29T08:03:36.408Z,1025.65
2019-03-29T08:04:36.399Z,1025.68
2019-03-29T08:05:36.385Z,1025.67
2019-03-29T08:06:36.382Z,1025.63
2019-03-29T08:07:36.375Z,1025.68
2019-03-29T08:08:36.331Z,1025.68
2019-03-29T08:09:36.320Z,1025.71
2019-03-29T08:10:36.390Z,1025.67
2019-03-29T08:11:46.126Z,1025.65
2019-03-29T08:12:40.423Z,1025.66
2019-03-29T08:13:36.325Z,1025.65
2019-03-29T08:14:36.279Z,1025.67
2019-03-29T08:15:36.265Z,1025.62
2019-03-29T08:16:36.286Z,1025.64
2019-03-29T08:17:36.237Z,1025.64
2019-03-29T08:18:36.235Z,1025.64
2019-03-29T08:19:37.285Z,1025.61
2019-03-29T08:20:42.011Z,1025.62
2019-03-29T08:21:37.233Z,1025.55
2019-03-29T08:22:36.202Z,1025.58
2019-03-29T08:23:36.174Z,1025.62
2019-03-29T08:24:36.170Z,1025.59
2019-03-29T08:25:36.153Z,1025.59
2019-03-29T08:26:36.181Z,1025.58
2019-03-29T08:27:36.169Z,1025.59
2019-03-29T08:28:36.128Z,1025.53
2019-03-29T08:29:36.108Z,1025.55
2019-03-29T08:30:36.103Z,1025.54
2019-03-29T08:31:36.102Z,1025.58
2019-03-29T08:32:36.167Z,1025.48
2019-03-29T08:33:36.062Z,1025.52
2019-03-29T08:34:36.241Z,1025.50
2019-03-29T08:35:36.087Z,1025.46
2019-03-29T08:36:36.048Z,1025.48
2019-03-29T08:37:36.086Z,1025.44
2019-03-29T08:38:36.014Z,1025.44
2019-03-29T08:39:36.013Z,1025.43
2019-03-29T08:40:36.039Z,1025.37
2019-03-29T08:41:35.987Z,1025.39
2019-03-29T08:42:35.984Z,1025.38
2019-03-29T08:43:35.978Z,1025.40
2019-03-29T08:44:35.945Z,1025.38
2019-03-29T08:45:35.994Z,1025.40
2019-03-29T08:46:35.930Z,1025.34
2019-03-29T08:47:35.956Z,1025.37
2019-03-29T08:48:35.928Z,1025.34
2019-03-29T08:49:35.926Z,1025.29
2019-03-29T08:50:35.920Z,1025.32
2019-03-29T08:51:35.877Z,1025.31
2019-03-29T08:52:35.869Z,1025.30
2019-03-29T08:53:35.926Z,1025.29
2019-03-29T08:54:35.846Z,1025.24
2019-03-29T08:55:45.537Z,1025.28
2019-03-29T08:56:36.825Z,1025.25
2019-03-29T08:57:35.845Z,1025.18
2019-03-29T08:58:35.829Z,1025.15
2019-03-29T08:59:35.827Z,1025.13
2019-03-29T09:00:35.901Z,1025.15
2019-03-29T09:01:35.789Z,1025.11
2019-03-29T09:02:35.791Z,1025.14
2019-03-29T09:03:35.857Z,1025.17
2019-03-29T09:04:35.753Z,1025.16
2019-03-29T09:05:39.050Z,1025.17
2019-03-29T09:06:35.716Z,1025.14
2019-03-29T09:07:44.497Z,1025.12
2019-03-29T09:08:36.694Z,1025.07
2019-03-29T09:09:35.698Z,1025.10
2019-03-29T09:10:35.788Z,1024.96
2019-03-29T09:11:38.783Z,1025.03
2019-03-29T09:12:35.658Z,1025.01
2019-03-29T09:13:35.639Z,1025.01
2019-03-29T09:14:35.631Z,1024.98
2019-03-29T09:15:35.674Z,1024.97
2019-03-29T09:16:35.617Z,1024.96
2019-03-29T09:17:35.596Z,1024.89
2019-03-29T09:18:35.593Z,1024.92
2019-03-29T09:19:35.574Z,1024.86
2019-03-29T09:20:35.613Z,1024.95
2019-03-29T09:21:35.553Z,1024.89
2019-03-29T09:22:35.571Z,1024.85
2019-03-29T09:23:35.544Z,1024.91
2019-03-29T09:24:35.542Z,1024.84
2019-03-29T09:25:35.541Z,1024.83
2019-03-29T09:26:35.524Z,1024.84
2019-03-29T09:27:35.489Z,1024.90
2019-03-29T09:28:35.507Z,1024.83
2019-03-29T09:29:35.468Z,1024.84
2019-03-29T09:30:35.510Z,1024.84
2019-03-29T09:31:35.473Z,1024.80
2019-03-29T09:32:35.430Z,1024.81
2019-03-29T09:33:35.461Z,1024.77
2019-03-29T09:34:35.450Z,1024.84
2019-03-29T09:35:35.423Z,1024.74
2019-03-29T09:36:35.435Z,1024.82
2019-03-29T09:37:35.398Z,1024.82
2019-03-29T09:38:35.373Z,1024.79
2019-03-29T09:39:35.383Z,1024.80
2019-03-29T09:40:35.354Z,1024.78
2019-03-29T09:41:35.381Z,1024.74
2019-03-29T09:42:35.331Z,1024.83
2019-03-29T09:43:35.347Z,1024.77
2019-03-29T09:44:35.306Z,1024.79
2019-03-29T09:45:35.334Z,1024.81
2019-03-29T09:46:35.319Z,1024.79
2019-03-29T09:47:40.123Z,1024.81
2019-03-29T09:48:36.277Z,1024.75
2019-03-29T09:49:35.257Z,1024.84
2019-03-29T09:50:35.242Z,1024.87
2019-03-29T09:51:36.171Z,1024.73
2019-03-29T09:52:35.224Z,1024.75
2019-03-29T09:53:35.299Z,1024.68
2019-03-29T09:54:35.201Z,1024.81
2019-03-29T09:55:35.192Z,1024.83
2019-03-29T09:56:39.183Z,1024.84
2019-03-29T09:57:37.674Z,1024.82
2019-03-29T09:58:35.194Z,1024.87
2019-03-29T09:59:35.156Z,1024.84
2019-03-29T10:00:35.141Z,1024.79
2019-03-29T10:01:35.239Z,1024.72
2019-03-29T10:02:35.127Z,1024.70
2019-03-29T10:03:35.149Z,1024.72
2019-03-29T10:04:35.122Z,1024.63
2019-03-29T10:05:35.089Z,1024.67
2019-03-29T10:06:35.111Z,1024.53
2019-03-29T10:07:35.096Z,1024.58
2019-03-29T10:08:35.082Z,1024.52
2019-03-29T10:09:35.047Z,1024.52
2019-03-29T10:10:35.044Z,1024.50
2019-03-29T10:11:35.083Z,1024.56
2019-03-29T10:12:43.237Z,1024.61
2019-03-29T10:13:36.016Z,1024.50
2019-03-29T10:14:35.003Z,1024.46
2019-03-29T10:15:35.039Z,1024.46
2019-03-29T10:16:34.982Z,1024.64
2019-03-29T10:17:34.997Z,1024.49
2019-03-29T10:18:34.966Z,1024.60
2019-03-29T10:19:34.987Z,1024.53
2019-03-29T10:20:34.951Z,1024.47
2019-03-29T10:21:34.970Z,1024.33
2019-03-29T10:22:34.918Z,1024.38
2019-03-29T10:23:34.911Z,1024.35
2019-03-29T10:24:34.907Z,1024.46
2019-03-29T10:25:34.899Z,1024.44
2019-03-29T10:26:34.945Z,1024.43
2019-03-29T10:27:34.873Z,1024.37
2019-03-29T10:28:34.857Z,1024.24
2019-03-29T10:29:34.851Z,1024.28
2019-03-29T10:30:34.844Z,1024.23
2019-03-29T10:31:34.849Z,1024.28
2019-03-29T10:32:34.848Z,1024.36
2019-03-29T10:33:34.817Z,1024.42
2019-03-29T10:34:37.409Z,1024.39
2019-03-29T10:35:34.822Z,1024.28
2019-03-29T10:36:34.790Z,1024.17
2019-03-29T10:37:34.783Z,1024.23
2019-03-29T10:38:34.793Z,1024.07
2019-03-29T10:39:35.831Z,1024.06
2019-03-29T10:40:34.751Z,1024.16
2019-03-29T10:41:37.979Z,1024.15
2019-03-29T10:42:34.728Z,1024.07
2019-03-29T10:43:34.746Z,1024.09
2019-03-29T10:44:34.717Z,1023.97
2019-03-29T10:45:39.815Z,1024.02
2019-03-29T10:46:35.691Z,1023.99
2019-03-29T10:47:43.815Z,1023.88
2019-03-29T10:48:35.667Z,1023.99
2019-03-29T10:49:34.681Z,1024.00
2019-03-29T10:50:34.649Z,1024.00
2019-03-29T10:51:34.639Z,1024.02
2019-03-29T10:52:34.639Z,1024.06
2019-03-29T10:53:34.622Z,1023.99
2019-03-29T10:54:34.630Z,1023.95
2019-03-29T10:55:34.618Z,1023.95
2019-03-29T10:56:34.820Z,1023.96
2019-03-29T10:57:34.611Z,1023.98
2019-03-29T10:58:34.570Z,1024.08
2019-03-29T10:59:34.621Z,1023.98
2019-03-29T11:00:34.579Z,1023.93
2019-03-29T11:01:34.544Z,1023.89
2019-03-29T11:02:34.586Z,1023.87
2019-03-29T11:03:34.532Z,1023.95
2019-03-29T11:04:34.749Z,1023.85
2019-03-29T11:05:34.510Z,1023.78
2019-03-29T11:06:34.494Z,1023.82
2019-03-29T11:07:34.510Z,1023.77
2019-03-29T11:08:34.470Z,1023.53
2019-03-29T11:09:37.043Z,1023.80
2019-03-29T11:10:34.462Z,1023.70
2019-03-29T11:11:34.442Z,1023.82
2019-03-29T11:12:34.473Z,1023.71
2019-03-29T11:13:34.436Z,1023.72
2019-03-29T11:14:34.411Z,1023.72
2019-03-29T11:15:34.410Z,1023.82
2019-03-29T11:16:34.389Z,1023.64
2019-03-29T11:17:34.411Z,1023.66
2019-03-29T11:18:34.370Z,1023.71
2019-03-29T11:19:34.363Z,1023.64
2019-03-29T11:20:34.355Z,1023.64
2019-03-29T11:21:34.342Z,1023.69
2019-03-29T11:22:34.366Z,1023.71
2019-03-29T11:23:34.365Z,1023.72
2019-03-29T11:24:34.348Z,1023.66
2019-03-29T11:25:34.350Z,1023.65
2019-03-29T11:26:34.301Z,1023.76
2019-03-29T11:27:34.330Z,1023.79
2019-03-29T11:28:34.294Z,1023.74
2019-03-29T11:29:34.304Z,1023.70
2019-03-29T11:30:41.973Z,1023.59
2019-03-29T11:31:35.289Z,1023.60
2019-03-29T11:32:34.234Z,1023.61
2019-03-29T11:33:34.232Z,1023.53
2019-03-29T11:34:34.245Z,1023.57
2019-03-29T11:35:34.233Z,1023.50
2019-03-29T11:36:34.198Z,1023.18
2019-03-29T11:37:34.190Z,1023.11
2019-03-29T11:38:34.243Z,1023.46
2019-03-29T11:39:34.170Z,1023.39
2019-03-29T11:40:34.159Z,1023.34
2019-03-29T11:41:34.152Z,1023.34
2019-03-29T11:42:34.195Z,1023.33
2019-03-29T11:43:34.128Z,1023.25
2019-03-29T11:44:34.157Z,1023.23
2019-03-29T11:45:34.108Z,1023.22
2019-03-29T11:46:34.154Z,1023.24
2019-03-29T11:47:34.096Z,1023.21
2019-03-29T11:48:34.086Z,1023.40
2019-03-29T11:49:34.177Z,1023.30
2019-03-29T11:50:34.057Z,1023.22
2019-03-29T11:51:34.047Z,1023.18
2019-03-29T11:52:34.050Z,1022.87
2019-03-29T11:53:34.054Z,1023.10
2019-03-29T11:54:34.050Z,1022.96
2019-03-29T11:55:34.051Z,1023.07
2019-03-29T11:56:34.003Z,1023.10
2019-03-29T11:57:33.999Z,1023.06
2019-03-29T11:58:33.987Z,1022.93
2019-03-29T11:59:34.006Z,1022.90
2019-03-29T12:00:33.972Z,1022.93
2019-03-29T12:01:34.028Z,1022.95
2019-03-29T12:02:33.945Z,1023.04
2019-03-29T12:03:33.984Z,1022.90
2019-03-29T12:04:33.937Z,1022.91
2019-03-29T12:05:36.246Z,1022.87
2019-03-29T12:06:33.970Z,1022.85
2019-03-29T12:07:33.956Z,1022.88
2019-03-29T12:08:33.894Z,1022.92
2019-03-29T12:09:33.885Z,1022.82
2019-03-29T12:10:33.878Z,1022.83
2019-03-29T12:11:33.906Z,1022.79
2019-03-29T12:12:33.852Z,1022.79
2019-03-29T12:13:40.909Z,1022.75
2019-03-29T12:14:34.828Z,1022.70
2019-03-29T12:15:33.833Z,1022.65
2019-03-29T12:16:33.814Z,1022.58
2019-03-29T12:17:33.886Z,1022.58
2019-03-29T12:18:33.797Z,1022.60
2019-03-29T12:19:33.802Z,1022.58
2019-03-29T12:20:33.820Z,1022.52
2019-03-29T12:21:33.761Z,1022.52
2019-03-29T12:22:33.778Z,1022.58
2019-03-29T12:23:33.738Z,1022.68
2019-03-29T12:24:33.745Z,1022.75
2019-03-29T12:25:33.742Z,1022.70
2019-03-29T12:26:33.714Z,1022.66
2019-03-29T12:27:33.749Z,1022.72
2019-03-29T12:28:33.684Z,1022.83
2019-03-29T12:29:33.678Z,1022.83
2019-03-29T12:30:33.714Z,1022.79
2019-03-29T12:31:33.689Z,1022.84
2019-03-29T12:32:33.678Z,1022.67
2019-03-29T12:33:33.659Z,1022.66
2019-03-29T12:34:33.625Z,1022.59
2019-03-29T12:35:33.615Z,1022.57
2019-03-29T12:36:33.615Z,1022.66
2019-03-29T12:37:33.599Z,1022.58
2019-03-29T12:38:33.621Z,1022.68
2019-03-29T12:39:33.573Z,1022.71
2019-03-29T12:40:33.618Z,1022.66
2019-03-29T12:41:33.574Z,1022.66
2019-03-29T12:42:33.558Z,1022.49
2019-03-29T12:43:35.116Z,1022.30
2019-03-29T12:44:33.594Z,1022.30
2019-03-29T12:45:33.516Z,1022.24
2019-03-29T12:46:33.614Z,1022.21
2019-03-29T12:47:33.491Z,1022.37
2019-03-29T12:48:33.538Z,1022.28
2019-03-29T12:49:33.513Z,1022.53
2019-03-29T12:50:33.483Z,1022.52
2019-03-29T12:51:33.466Z,1022.52
2019-03-29T12:52:34.061Z,1022.52
2019-03-29T12:53:33.438Z,1022.51
2019-03-29T12:54:33.465Z,1022.37
2019-03-29T12:55:33.457Z,1022.43
2019-03-29T12:56:33.407Z,1022.42
2019-03-29T12:57:33.478Z,1022.33
2019-03-29T12:58:33.386Z,1022.36
2019-03-29T12:59:33.462Z,1022.40
2019-03-29T13:00:33.428Z,1022.38
2019-03-29T13:01:39.182Z,1022.16
2019-03-29T13:02:34.832Z,1022.02
2019-03-29T13:03:33.339Z,1022.20
2019-03-29T13:04:33.331Z,1022.19
2019-03-29T13:05:33.365Z,1021.98
2019-03-29T13:06:33.345Z,1021.84
2019-03-29T13:07:33.318Z,1021.80
2019-03-29T13:08:33.353Z,1021.80
2019-03-29T13:09:33.286Z,1021.77
2019-03-29T13:10:33.282Z,1021.80
2019-03-29T13:11:33.340Z,1021.75
2019-03-29T13:12:33.268Z,1021.79
2019-03-29T13:13:33.267Z,1021.75
2019-03-29T13:14:33.255Z,1021.71
2019-03-29T13:15:33.224Z,1021.84
2019-03-29T13:16:33.210Z,1021.95
2019-03-29T13:17:34.387Z,1021.90
2019-03-29T13:18:33.241Z,1021.84
2019-03-29T13:19:33.324Z,1021.77
2019-03-29T13:20:33.184Z,1021.61
2019-03-29T13:21:33.199Z,1021.71
2019-03-29T13:22:34.716Z,1021.69
2019-03-29T13:23:33.215Z,1021.83
2019-03-29T13:24:33.150Z,1021.74
2019-03-29T13:25:33.150Z,1021.80
2019-03-29T13:26:33.204Z,1021.83
2019-03-29T13:27:33.112Z,1021.69
2019-03-29T13:28:33.230Z,1021.65
2019-03-29T13:29:33.161Z,1021.67
2019-03-29T13:30:33.087Z,1021.70
2019-03-29T13:31:33.061Z,1021.75
2019-03-29T13:32:33.472Z,1021.73
2019-03-29T13:33:33.071Z,1021.62
2019-03-29T13:34:33.061Z,1021.52
2019-03-29T13:35:33.019Z,1021.44
2019-03-29T13:36:33.004Z,1021.40
2019-03-29T13:37:33.033Z,1021.41
2019-03-29T13:38:33.005Z,1021.46
2019-03-29T13:39:33.007Z,1021.46
2019-03-29T13:40:32.995Z,1021.57
2019-03-29T13:41:32.958Z,1021.40
2019-03-29T13:42:32.976Z,1021.39
2019-03-29T13:43:32.943Z,1021.29
2019-03-29T13:44:33.034Z,1021.28
2019-03-29T13:45:33.164Z,1021.32
2019-03-29T13:46:32.988Z,1021.30
2019-03-29T13:47:33.086Z,1021.21
2019-03-29T13:48:32.930Z,1021.29
2019-03-29T13:49:32.935Z,1021.27
2019-03-29T13:50:33.110Z,1021.19
2019-03-29T13:51:32.865Z,1021.27
2019-03-29T13:52:32.895Z,1021.30
2019-03-29T13:53:32.850Z,1021.17
2019-03-29T13:54:32.950Z,1021.12
2019-03-29T13:55:32.850Z,1021.07
2019-03-29T13:56:32.835Z,1021.06
2019-03-29T13:57:32.805Z,1021.01
2019-03-29T13:58:32.784Z,1021.00
2019-03-29T13:59:33.111Z,1020.90
2019-03-29T14:00:32.786Z,1021.01
2019-03-29T14:01:32.850Z,1020.87
2019-03-29T14:02:32.737Z,1020.90
2019-03-29T14:03:32.738Z,1021.01
2019-03-29T14:04:32.734Z,1020.87
2019-03-29T14:05:32.723Z,1020.89
2019-03-29T14:06:32.731Z,1020.89
2019-03-29T14:07:32.702Z,1020.91
2019-03-29T14:08:32.727Z,1020.94
2019-03-29T14:09:32.783Z,1020.87
2019-03-29T14:10:32.693Z,1020.84
2019-03-29T14:11:32.703Z,1020.86
2019-03-29T14:12:33.068Z,1020.84
2019-03-29T14:13:32.894Z,1020.83
2019-03-29T14:14:38.380Z,1020.84
2019-03-29T14:15:33.632Z,1020.75
2019-03-29T14:16:32.599Z,1020.77
2019-03-29T14:17:32.630Z,1020.74
2019-03-29T14:18:32.628Z,1020.73
2019-03-29T14:19:32.591Z,1020.66
2019-03-29T14:20:32.655Z,1020.62
2019-03-29T14:21:32.543Z,1020.60
2019-03-29T14:22:32.594Z,1020.63
2019-03-29T14:23:32.547Z,1020.70
2019-03-29T14:24:32.516Z,1020.59
2019-03-29T14:25:32.529Z,1020.56
2019-03-29T14:26:32.501Z,1020.50
2019-03-29T14:27:32.479Z,1020.55
2019-03-29T14:28:32.490Z,1020.51
2019-03-29T14:29:33.586Z,1020.52
2019-03-29T14:30:32.495Z,1020.57
2019-03-29T14:31:32.576Z,1020.51
2019-03-29T14:32:32.429Z,1020.42
2019-03-29T14:33:32.607Z,1020.40
2019-03-29T14:34:32.410Z,1020.55
2019-03-29T14:35:32.438Z,1020.55
2019-03-29T14:36:32.409Z,1020.52
2019-03-29T14:37:32.386Z,1020.45
2019-03-29T14:38:32.356Z,1020.33
2019-03-29T14:39:32.393Z,1020.38
2019-03-29T14:40:32.428Z,1020.46
2019-03-29T14:41:32.338Z,1020.36
2019-03-29T14:42:32.320Z,1020.50
2019-03-29T14:43:32.308Z,1020.52
2019-03-29T14:44:32.316Z,1020.55
2019-03-29T14:45:32.385Z,1020.66
2019-03-29T14:46:32.350Z,1020.52
2019-03-29T14:47:41.268Z,1020.44
2019-03-29T14:48:33.273Z,1020.45
2019-03-29T14:49:32.253Z,1020.43
2019-03-29T14:50:35.614Z,1020.36
2019-03-29T14:51:32.225Z,1020.31
2019-03-29T14:52:32.235Z,1020.23
2019-03-29T14:53:32.233Z,1020.28
2019-03-29T14:54:32.200Z,1020.21
2019-03-29T14:55:32.211Z,1020.31
2019-03-29T14:56:32.630Z,1020.32
2019-03-29T14:57:32.184Z,1020.33
2019-03-29T14:58:32.154Z,1020.34
2019-03-29T14:59:32.166Z,1020.32
2019-03-29T15:00:32.162Z,1020.33
2019-03-29T15:01:32.192Z,1020.31
2019-03-29T15:02:32.182Z,1020.28
2019-03-29T15:03:32.181Z,1020.24
2019-03-29T15:04:32.087Z,1020.18
2019-03-29T15:05:32.092Z,1020.19
2019-03-29T15:06:32.073Z,1020.18
2019-03-29T15:07:32.072Z,1020.19
2019-03-29T15:08:32.157Z,1020.16
2019-03-29T15:09:32.650Z,1020.07
2019-03-29T15:10:32.028Z,1020.05
2019-03-29T15:11:32.035Z,1020.10
2019-03-29T15:12:32.036Z,1020.13
2019-03-29T15:13:32.022Z,1020.05
2019-03-29T15:14:32.038Z,1020.01
2019-03-29T15:15:31.996Z,1019.93
2019-03-29T15:16:31.966Z,1020.01
2019-03-29T15:17:31.981Z,1020.04
2019-03-29T15:18:31.945Z,1020.00
2019-03-29T15:19:31.946Z,1019.94
2019-03-29T15:20:31.961Z,1019.92
2019-03-29T15:21:31.905Z,1019.89
2019-03-29T15:22:33.230Z,1019.88
2019-03-29T15:23:31.997Z,1019.89
2019-03-29T15:24:31.881Z,1019.86
2019-03-29T15:25:31.907Z,1019.87
2019-03-29T15:26:31.866Z,1019.86
2019-03-29T15:27:31.847Z,1019.79
2019-03-29T15:28:31.855Z,1019.86
2019-03-29T15:29:31.845Z,1019.90
2019-03-29T15:30:31.843Z,1019.79
2019-03-29T15:31:31.872Z,1019.79
2019-03-29T15:32:31.803Z,1019.76
2019-03-29T15:33:31.822Z,1019.75
2019-03-29T15:34:31.783Z,1019.75
2019-03-29T15:35:31.765Z,1019.75
2019-03-29T15:36:31.773Z,1019.69
2019-03-29T15:37:31.741Z,1019.75
2019-03-29T15:38:31.765Z,1019.73
2019-03-29T15:39:31.745Z,1019.70
2019-03-29T15:40:31.735Z,1019.73
2019-03-29T15:41:31.715Z,1019.73
2019-03-29T15:42:31.688Z,1019.67
2019-03-29T15:43:31.722Z,1019.67
2019-03-29T15:44:31.668Z,1019.52
2019-03-29T15:45:31.659Z,1019.55
2019-03-29T15:46:31.653Z,1019.56
2019-03-29T15:47:31.717Z,1019.57
2019-03-29T15:48:31.648Z,1019.57
2019-03-29T15:49:31.675Z,1019.59
2019-03-29T15:50:31.609Z,1019.54
2019-03-29T15:51:32.619Z,1019.58
2019-03-29T15:52:31.581Z,1019.62
2019-03-29T15:53:31.604Z,1019.49
2019-03-29T15:54:33.116Z,1019.54
2019-03-29T15:55:31.552Z,1019.55
2019-03-29T15:56:31.545Z,1019.57
2019-03-29T15:57:31.569Z,1019.53
2019-03-29T15:58:31.525Z,1019.50
2019-03-29T15:59:31.529Z,1019.42
2019-03-29T16:00:31.503Z,1019.46
2019-03-29T16:01:31.510Z,1019.44
2019-03-29T16:02:31.600Z,1019.43
2019-03-29T16:03:31.477Z,1019.42
2019-03-29T16:04:31.508Z,1019.46
2019-03-29T16:05:31.447Z,1019.41
2019-03-29T16:06:31.452Z,1019.41
2019-03-29T16:07:34.732Z,1019.52
2019-03-29T16:08:31.484Z,1019.43
2019-03-29T16:09:31.407Z,1019.47
2019-03-29T16:10:31.406Z,1019.49
2019-03-29T16:11:31.415Z,1019.45
2019-03-29T16:12:31.419Z,1019.43
2019-03-29T16:13:31.430Z,1019.49
2019-03-29T16:14:31.353Z,1019.46
2019-03-29T16:15:35.171Z,1019.37
2019-03-29T16:16:32.337Z,1019.44
2019-03-29T16:17:31.343Z,1019.37
2019-03-29T16:18:31.356Z,1019.38
2019-03-29T16:19:31.345Z,1019.35
2019-03-29T16:20:31.303Z,1019.37
2019-03-29T16:21:31.298Z,1019.36
2019-03-29T16:22:31.281Z,1019.44
2019-03-29T16:23:31.261Z,1019.36
2019-03-29T16:24:31.284Z,1019.36
2019-03-29T16:25:31.238Z,1019.35
2019-03-29T16:26:31.229Z,1019.43
2019-03-29T16:27:31.220Z,1019.39
2019-03-29T16:28:31.211Z,1019.33
2019-03-29T16:29:31.239Z,1019.24
2019-03-29T16:30:31.184Z,1019.31
2019-03-29T16:31:31.174Z,1019.30
2019-03-29T16:32:31.169Z,1019.33
2019-03-29T16:33:31.157Z,1019.34
2019-03-29T16:34:31.188Z,1019.31
2019-03-29T16:35:31.149Z,1019.25
2019-03-29T16:36:31.144Z,1019.40
2019-03-29T16:37:31.146Z,1019.26
2019-03-29T16:38:31.194Z,1019.30
2019-03-29T16:39:31.112Z,1019.29
2019-03-29T16:40:31.314Z,1019.32
2019-03-29T16:41:31.111Z,1019.35
2019-03-29T16:42:31.154Z,1019.34
2019-03-29T16:43:31.076Z,1019.29
2019-03-29T16:44:31.058Z,1019.28
2019-03-29T16:45:31.029Z,1019.30
2019-03-29T16:46:31.019Z,1019.28
2019-03-29T16:47:31.055Z,1019.32
2019-03-29T16:48:31.003Z,1019.26
2019-03-29T16:49:30.993Z,1019.26
2019-03-29T16:50:30.975Z,1019.28
2019-03-29T16:51:31.009Z,1019.25
2019-03-29T16:52:30.967Z,1019.23
2019-03-29T16:53:30.945Z,1019.21
2019-03-29T16:54:30.941Z,1019.23
2019-03-29T16:55:30.945Z,1019.19
2019-03-29T16:56:30.911Z,1019.20
2019-03-29T16:57:30.902Z,1019.25
2019-03-29T16:58:30.943Z,1019.24
2019-03-29T16:59:30.887Z,1019.25
2019-03-29T17:00:30.908Z,1019.18
2019-03-29T17:01:30.872Z,1019.30
2019-03-29T17:02:30.866Z,1019.26
2019-03-29T17:03:30.853Z,1019.25
2019-03-29T17:04:30.828Z,1019.27
2019-03-29T17:05:30.953Z,1019.20
2019-03-29T17:06:30.833Z,1019.18
2019-03-29T17:07:30.824Z,1019.20
2019-03-29T17:08:30.826Z,1019.28
2019-03-29T17:09:30.774Z,1019.16
2019-03-29T17:10:30.782Z,1019.21
2019-03-29T17:11:31.032Z,1019.15
2019-03-29T17:12:30.751Z,1019.17
2019-03-29T17:13:30.727Z,1019.17
2019-03-29T17:14:30.753Z,1019.13
2019-03-29T17:15:30.794Z,1019.13
2019-03-29T17:16:30.939Z,1019.14
2019-03-29T17:17:31.053Z,1019.18
2019-03-29T17:18:30.768Z,1019.16
2019-03-29T17:19:30.708Z,1019.14
2019-03-29T17:20:30.668Z,1019.10
2019-03-29T17:21:30.654Z,1019.14
2019-03-29T17:22:30.678Z,1019.15
2019-03-29T17:23:30.629Z,1019.10
2019-03-29T17:24:30.614Z,1019.09
2019-03-29T17:25:30.634Z,1019.17
2019-03-29T17:26:30.598Z,1019.16
2019-03-29T17:27:30.664Z,1019.13
2019-03-29T17:28:30.595Z,1019.13
2019-03-29T17:29:30.571Z,1019.12
2019-03-29T17:30:30.559Z,1019.14
2019-03-29T17:31:30.541Z,1019.07
2019-03-29T17:32:30.574Z,1019.03
2019-03-29T17:33:30.529Z,1019.04
2019-03-29T17:34:30.575Z,1019.11
2019-03-29T17:35:30.615Z,1019.10
2019-03-29T17:36:30.489Z,1019.18
2019-03-29T17:37:30.712Z,1019.13
2019-03-29T17:38:30.465Z,1019.15
2019-03-29T17:39:30.456Z,1019.17
2019-03-29T17:40:30.445Z,1019.15
2019-03-29T17:41:30.434Z,1019.16
2019-03-29T17:42:30.459Z,1019.20
2019-03-29T17:43:30.416Z,1019.16
2019-03-29T17:44:30.443Z,1019.26
2019-03-29T17:45:31.487Z,1019.18
2019-03-29T17:46:30.547Z,1019.26
2019-03-29T17:47:30.403Z,1019.25
2019-03-29T17:48:30.355Z,1019.20
2019-03-29T17:49:30.406Z,1019.19
2019-03-29T17:50:30.340Z,1019.19
2019-03-29T17:51:30.344Z,1019.20
2019-03-29T17:52:31.046Z,1019.23
2019-03-29T17:53:31.070Z,1019.20
2019-03-29T17:54:30.337Z,1019.21
2019-03-29T17:55:31.764Z,1019.26
2019-03-29T17:56:30.269Z,1019.17
2019-03-29T17:57:30.290Z,1019.18
2019-03-29T17:58:30.245Z,1019.24
2019-03-29T17:59:30.260Z,1019.19
2019-03-29T18:00:30.261Z,1019.21
2019-03-29T18:01:30.235Z,1019.23
2019-03-29T18:02:30.244Z,1019.22
2019-03-29T18:03:30.197Z,1019.24
2019-03-29T18:04:30.184Z,1019.29
2019-03-29T18:05:30.199Z,1019.35
2019-03-29T18:06:30.171Z,1019.27
2019-03-29T18:07:30.196Z,1019.26
2019-03-29T18:08:32.118Z,1019.32
2019-03-29T18:09:31.183Z,1019.33
2019-03-29T18:10:30.121Z,1019.35
2019-03-29T18:11:30.169Z,1019.36
2019-03-29T18:12:30.175Z,1019.38
2019-03-29T18:13:30.094Z,1019.38
2019-03-29T18:14:30.087Z,1019.32
2019-03-29T18:15:32.052Z,1019.46
2019-03-29T18:16:31.166Z,1019.43
2019-03-29T18:17:30.110Z,1019.39
2019-03-29T18:18:30.039Z,1019.43
2019-03-29T18:19:30.040Z,1019.41
2019-03-29T18:20:30.045Z,1019.40
2019-03-29T18:21:30.021Z,1019.44
2019-03-29T18:22:30.024Z,1019.47
2019-03-29T18:23:30.058Z,1019.42
2019-03-29T18:24:29.991Z,1019.36
2019-03-29T18:25:29.966Z,1019.39
2019-03-29T18:26:30.419Z,1019.41
2019-03-29T18:27:29.943Z,1019.35
2019-03-29T18:28:29.966Z,1019.39
2019-03-29T18:29:29.963Z,1019.37
2019-03-29T18:30:29.950Z,1019.32
2019-03-29T18:31:29.905Z,1019.32
2019-03-29T18:32:29.897Z,1019.40
2019-03-29T18:33:29.893Z,1019.41
2019-03-29T18:34:29.899Z,1019.41
2019-03-29T18:35:29.926Z,1019.41
2019-03-29T18:36:30.098Z,1019.38
2019-03-29T18:37:29.839Z,1019.46
2019-03-29T18:38:29.848Z,1019.44
2019-03-29T18:39:29.818Z,1019.44
2019-03-29T18:40:29.857Z,1019.45
2019-03-29T18:41:29.832Z,1019.41
2019-03-29T18:42:29.842Z,1019.46
2019-03-29T18:43:29.787Z,1019.43
2019-03-29T18:44:29.780Z,1019.46
2019-03-29T18:45:29.897Z,1019.45
2019-03-29T18:46:43.703Z,1019.48
2019-03-29T18:47:30.927Z,1019.51
2019-03-29T18:48:29.726Z,1019.42
2019-03-29T18:49:29.718Z,1019.43
2019-03-29T18:50:29.708Z,1019.46
2019-03-29T18:51:29.697Z,1019.47
2019-03-29T18:52:29.695Z,1019.43
2019-03-29T18:53:29.755Z,1019.46
2019-03-29T18:54:29.737Z,1019.47
2019-03-29T18:55:29.652Z,1019.45
2019-03-29T18:56:29.641Z,1019.49
2019-03-29T18:57:29.655Z,1019.52
2019-03-29T18:58:29.632Z,1019.51
2019-03-29T18:59:29.625Z,1019.52
